sensor_id;sensor_type;location;lat;lon;timestamp;P1;durP1;ratioP1;P2;durP2;ratioP2
37221;SDS011;23119;51.842;-2.230;2023-06-22T00:01:01;6.15;;;2.15;;
37221;SDS011;23119;51.842;-2.230;2023-06-22T00:03:29;6.28;;;2.50;;
37221;SDS011;23119;51.842;-2.230;2023-06-22T00:05:55;4.95;;;2.33;;
37221;SDS011;23119;51.842;-2.230;2023-06-22T00:08:21;5.13;;;2.35;;
37221;SDS011;23119;51.842;-2.230;2023-06-22T00:10:50;6.03;;;2.55;;
37221;SDS011;23119;51.842;-2.230;2023-06-22T00:13:18;3.08;;;2.00;;
37221;SDS011;23119;51.842;-2.230;2023-06-22T00:15:49;5.55;;;1.85;;
37221;SDS011;23119;51.842;-2.230;2023-06-22T00:18:15;6.40;;;2.88;;
37221;SDS011;23119;51.842;-2.230;2023-06-22T00:20:41;4.65;;;2.33;;
37221;SDS011;23119;51.842;-2.230;2023-06-22T00:23:07;5.43;;;2.45;;
37221;SDS011;23119;51.842;-2.230;2023-06-22T00:25:39;6.57;;;2.55;;
37221;SDS011;23119;51.842;-2.230;2023-06-22T00:28:06;4.55;;;2.47;;
37221;SDS011;23119;51.842;-2.230;2023-06-22T00:30:32;8.27;;;3.13;;
37221;SDS011;23119;51.842;-2.230;2023-06-22T00:32:59;4.20;;;2.35;;
37221;SDS011;23119;51.842;-2.230;2023-06-22T00:35:25;4.28;;;2.72;;
37221;SDS011;23119;51.842;-2.230;2023-06-22T00:37:57;5.32;;;3.22;;
37221;SDS011;23119;51.842;-2.230;2023-06-22T00:42:52;4.90;;;2.85;;
37221;SDS011;23119;51.842;-2.230;2023-06-22T00:45:17;5.32;;;3.05;;
37221;SDS011;23119;51.842;-2.230;2023-06-22T00:47:43;9.30;;;3.58;;
37221;SDS011;23119;51.842;-2.230;2023-06-22T00:50:09;8.50;;;3.00;;
37221;SDS011;23119;51.842;-2.230;2023-06-22T00:52:43;5.00;;;3.33;;
37221;SDS011;23119;51.842;-2.230;2023-06-22T00:55:11;4.80;;;2.72;;
37221;SDS011;23119;51.842;-2.230;2023-06-22T00:57:37;7.03;;;3.55;;
37221;SDS011;23119;51.842;-2.230;2023-06-22T01:00:03;4.53;;;2.95;;
37221;SDS011;23119;51.842;-2.230;2023-06-22T01:02:33;6.22;;;3.45;;
37221;SDS011;23119;51.842;-2.230;2023-06-22T01:05:01;7.97;;;3.78;;
37221;SDS011;23119;51.842;-2.230;2023-06-22T01:10:14;7.10;;;3.70;;
37221;SDS011;23119;51.842;-2.230;2023-06-22T01:12:55;5.63;;;3.60;;
37221;SDS011;23119;51.842;-2.230;2023-06-22T01:15:37;5.97;;;4.03;;
37221;SDS011;23119;51.842;-2.230;2023-06-22T01:18:11;7.88;;;3.60;;
37221;SDS011;23119;51.842;-2.230;2023-06-22T01:20:39;9.23;;;4.22;;
37221;SDS011;23119;51.842;-2.230;2023-06-22T01:26:04;6.03;;;3.95;;
37221;SDS011;23119;51.842;-2.230;2023-06-22T01:33:39;6.38;;;4.07;;
37221;SDS011;23119;51.842;-2.230;2023-06-22T01:36:07;6.63;;;4.80;;
37221;SDS011;23119;51.842;-2.230;2023-06-22T01:38:34;8.75;;;4.40;;
37221;SDS011;23119;51.842;-2.230;2023-06-22T01:41:01;8.40;;;4.28;;
37221;SDS011;23119;51.842;-2.230;2023-06-22T01:43:28;7.35;;;4.10;;
37221;SDS011;23119;51.842;-2.230;2023-06-22T01:46:00;7.18;;;4.70;;
37221;SDS011;23119;51.842;-2.230;2023-06-22T01:48:27;8.80;;;4.78;;
37221;SDS011;23119;51.842;-2.230;2023-06-22T01:50:56;9.40;;;5.07;;
37221;SDS011;23119;51.842;-2.230;2023-06-22T01:53:22;8.35;;;4.88;;
37221;SDS011;23119;51.842;-2.230;2023-06-22T01:55:50;7.68;;;4.65;;
37221;SDS011;23119;51.842;-2.230;2023-06-22T01:58:19;10.70;;;4.60;;
37221;SDS011;23119;51.842;-2.230;2023-06-22T02:03:19;8.55;;;4.03;;
37221;SDS011;23119;51.842;-2.230;2023-06-22T02:05:54;9.00;;;4.68;;
37221;SDS011;23119;51.842;-2.230;2023-06-22T02:08:28;8.40;;;5.15;;
37221;SDS011;23119;51.842;-2.230;2023-06-22T02:11:03;8.05;;;4.72;;
37221;SDS011;23119;51.842;-2.230;2023-06-22T02:13:30;8.63;;;5.25;;
37221;SDS011;23119;51.842;-2.230;2023-06-22T02:15:57;6.55;;;4.80;;
37221;SDS011;23119;51.842;-2.230;2023-06-22T02:18:23;9.38;;;5.55;;
37221;SDS011;23119;51.842;-2.230;2023-06-22T02:20:50;10.32;;;5.25;;
37221;SDS011;23119;51.842;-2.230;2023-06-22T02:23:18;11.10;;;5.25;;
37221;SDS011;23119;51.842;-2.230;2023-06-22T02:25:46;7.97;;;5.47;;
37221;SDS011;23119;51.842;-2.230;2023-06-22T02:28:12;10.27;;;5.50;;
37221;SDS011;23119;51.842;-2.230;2023-06-22T02:30:38;9.95;;;6.22;;
37221;SDS011;23119;51.842;-2.230;2023-06-22T02:33:04;7.75;;;5.32;;
37221;SDS011;23119;51.842;-2.230;2023-06-22T02:35:29;8.43;;;5.25;;
37221;SDS011;23119;51.842;-2.230;2023-06-22T02:38:03;9.23;;;5.68;;
37221;SDS011;23119;51.842;-2.230;2023-06-22T02:40:29;8.00;;;5.57;;
37221;SDS011;23119;51.842;-2.230;2023-06-22T02:42:55;10.15;;;4.93;;
37221;SDS011;23119;51.842;-2.230;2023-06-22T02:45:23;10.07;;;4.78;;
37221;SDS011;23119;51.842;-2.230;2023-06-22T02:47:49;7.47;;;5.03;;
37221;SDS011;23119;51.842;-2.230;2023-06-22T02:50:15;9.25;;;5.35;;
37221;SDS011;23119;51.842;-2.230;2023-06-22T02:52:40;9.25;;;4.07;;
37221;SDS011;23119;51.842;-2.230;2023-06-22T02:55:06;9.35;;;3.92;;
37221;SDS011;23119;51.842;-2.230;2023-06-22T02:57:34;9.45;;;4.63;;
37221;SDS011;23119;51.842;-2.230;2023-06-22T03:00:02;6.50;;;3.88;;
37221;SDS011;23119;51.842;-2.230;2023-06-22T03:02:41;8.55;;;4.22;;
37221;SDS011;23119;51.842;-2.230;2023-06-22T03:05:08;6.70;;;4.28;;
37221;SDS011;23119;51.842;-2.230;2023-06-22T03:07:38;6.30;;;3.10;;
37221;SDS011;23119;51.842;-2.230;2023-06-22T03:10:08;6.43;;;2.80;;
37221;SDS011;23119;51.842;-2.230;2023-06-22T03:12:34;6.32;;;3.47;;
37221;SDS011;23119;51.842;-2.230;2023-06-22T03:15:03;8.13;;;2.78;;
37221;SDS011;23119;51.842;-2.230;2023-06-22T03:17:34;6.57;;;3.17;;
37221;SDS011;23119;51.842;-2.230;2023-06-22T03:20:01;4.60;;;2.85;;
37221;SDS011;23119;51.842;-2.230;2023-06-22T03:22:34;9.25;;;3.70;;
37221;SDS011;23119;51.842;-2.230;2023-06-22T03:25:00;7.15;;;3.50;;
37221;SDS011;23119;51.842;-2.230;2023-06-22T03:27:26;7.97;;;3.90;;
37221;SDS011;23119;51.842;-2.230;2023-06-22T03:29:52;5.38;;;3.58;;
37221;SDS011;23119;51.842;-2.230;2023-06-22T03:32:21;7.53;;;3.17;;
37221;SDS011;23119;51.842;-2.230;2023-06-22T03:34:47;7.25;;;3.70;;
37221;SDS011;23119;51.842;-2.230;2023-06-22T03:37:22;7.45;;;4.07;;
37221;SDS011;23119;51.842;-2.230;2023-06-22T03:39:47;5.68;;;3.80;;
37221;SDS011;23119;51.842;-2.230;2023-06-22T03:42:18;5.82;;;3.83;;
37221;SDS011;23119;51.842;-2.230;2023-06-22T03:44:46;7.18;;;4.28;;
37221;SDS011;23119;51.842;-2.230;2023-06-22T03:47:13;8.00;;;3.92;;
37221;SDS011;23119;51.842;-2.230;2023-06-22T03:49:38;5.20;;;3.90;;
37221;SDS011;23119;51.842;-2.230;2023-06-22T03:52:05;7.20;;;4.43;;
37221;SDS011;23119;51.842;-2.230;2023-06-22T03:54:33;8.15;;;3.80;;
37221;SDS011;23119;51.842;-2.230;2023-06-22T03:57:00;7.30;;;4.78;;
37221;SDS011;23119;51.842;-2.230;2023-06-22T03:59:29;9.75;;;5.32;;
37221;SDS011;23119;51.842;-2.230;2023-06-22T04:01:55;7.55;;;4.28;;
37221;SDS011;23119;51.842;-2.230;2023-06-22T04:04:29;6.25;;;3.85;;
37221;SDS011;23119;51.842;-2.230;2023-06-22T04:06:54;9.05;;;5.07;;
37221;SDS011;23119;51.842;-2.230;2023-06-22T04:09:20;7.35;;;4.40;;
37221;SDS011;23119;51.842;-2.230;2023-06-22T04:11:52;6.05;;;4.00;;
37221;SDS011;23119;51.842;-2.230;2023-06-22T04:14:17;7.93;;;3.70;;
37221;SDS011;23119;51.842;-2.230;2023-06-22T04:16:46;8.82;;;4.32;;
37221;SDS011;23119;51.842;-2.230;2023-06-22T04:19:11;6.63;;;4.18;;
37221;SDS011;23119;51.842;-2.230;2023-06-22T04:21:41;6.35;;;3.80;;
37221;SDS011;23119;51.842;-2.230;2023-06-22T04:24:09;6.15;;;3.65;;
37221;SDS011;23119;51.842;-2.230;2023-06-22T04:26:46;5.10;;;3.53;;
37221;SDS011;23119;51.842;-2.230;2023-06-22T04:29:12;6.18;;;4.05;;
37221;SDS011;23119;51.842;-2.230;2023-06-22T04:31:38;7.47;;;4.28;;
37221;SDS011;23119;51.842;-2.230;2023-06-22T04:34:06;7.32;;;3.25;;
37221;SDS011;23119;51.842;-2.230;2023-06-22T04:36:36;6.32;;;3.20;;
37221;SDS011;23119;51.842;-2.230;2023-06-22T04:39:10;5.38;;;3.28;;
37221;SDS011;23119;51.842;-2.230;2023-06-22T04:41:40;6.43;;;3.17;;
37221;SDS011;23119;51.842;-2.230;2023-06-22T04:46:40;4.50;;;3.47;;
37221;SDS011;23119;51.842;-2.230;2023-06-22T04:49:09;5.80;;;2.97;;
37221;SDS011;23119;51.842;-2.230;2023-06-22T04:51:42;6.17;;;3.00;;
37221;SDS011;23119;51.842;-2.230;2023-06-22T04:54:08;8.57;;;3.38;;
37221;SDS011;23119;51.842;-2.230;2023-06-22T04:56:36;4.40;;;2.95;;
37221;SDS011;23119;51.842;-2.230;2023-06-22T04:59:03;7.38;;;2.85;;
37221;SDS011;23119;51.842;-2.230;2023-06-22T05:01:28;4.55;;;3.38;;
37221;SDS011;23119;51.842;-2.230;2023-06-22T05:03:57;4.55;;;2.47;;
37221;SDS011;23119;51.842;-2.230;2023-06-22T05:06:26;3.97;;;2.85;;
37221;SDS011;23119;51.842;-2.230;2023-06-22T05:08:55;7.68;;;2.22;;
37221;SDS011;23119;51.842;-2.230;2023-06-22T05:11:25;4.65;;;2.72;;
37221;SDS011;23119;51.842;-2.230;2023-06-22T05:13:54;4.45;;;2.67;;
37221;SDS011;23119;51.842;-2.230;2023-06-22T05:16:22;4.07;;;3.15;;
37221;SDS011;23119;51.842;-2.230;2023-06-22T05:18:51;5.60;;;3.40;;
37221;SDS011;23119;51.842;-2.230;2023-06-22T05:21:21;7.35;;;2.80;;
37221;SDS011;23119;51.842;-2.230;2023-06-22T05:23:51;6.50;;;2.97;;
37221;SDS011;23119;51.842;-2.230;2023-06-22T05:26:18;4.50;;;2.88;;
37221;SDS011;23119;51.842;-2.230;2023-06-22T05:28:45;4.20;;;1.98;;
37221;SDS011;23119;51.842;-2.230;2023-06-22T05:31:14;3.17;;;1.75;;
37221;SDS011;23119;51.842;-2.230;2023-06-22T05:33:44;3.95;;;2.05;;
37221;SDS011;23119;51.842;-2.230;2023-06-22T05:36:16;2.45;;;1.65;;
37221;SDS011;23119;51.842;-2.230;2023-06-22T05:38:43;4.53;;;1.45;;
37221;SDS011;23119;51.842;-2.230;2023-06-22T05:41:09;2.65;;;1.30;;
37221;SDS011;23119;51.842;-2.230;2023-06-22T05:43:34;2.92;;;1.70;;
37221;SDS011;23119;51.842;-2.230;2023-06-22T05:46:00;2.15;;;1.27;;
37221;SDS011;23119;51.842;-2.230;2023-06-22T05:48:31;2.10;;;1.08;;
37221;SDS011;23119;51.842;-2.230;2023-06-22T05:50:59;2.83;;;1.40;;
37221;SDS011;23119;51.842;-2.230;2023-06-22T05:55:58;3.92;;;1.35;;
37221;SDS011;23119;51.842;-2.230;2023-06-22T05:58:26;4.13;;;1.00;;
37221;SDS011;23119;51.842;-2.230;2023-06-22T06:00:52;4.10;;;1.15;;
37221;SDS011;23119;51.842;-2.230;2023-06-22T06:03:18;3.05;;;0.90;;
37221;SDS011;23119;51.842;-2.230;2023-06-22T06:05:49;3.60;;;0.90;;
37221;SDS011;23119;51.842;-2.230;2023-06-22T06:08:17;2.33;;;0.82;;
37221;SDS011;23119;51.842;-2.230;2023-06-22T06:10:45;1.52;;;0.90;;
37221;SDS011;23119;51.842;-2.230;2023-06-22T06:13:11;3.45;;;1.30;;
37221;SDS011;23119;51.842;-2.230;2023-06-22T06:15:37;2.03;;;1.30;;
37221;SDS011;23119;51.842;-2.230;2023-06-22T06:18:03;3.25;;;1.30;;
37221;SDS011;23119;51.842;-2.230;2023-06-22T06:20:30;2.67;;;1.10;;
37221;SDS011;23119;51.842;-2.230;2023-06-22T06:22:56;3.97;;;1.15;;
37221;SDS011;23119;51.842;-2.230;2023-06-22T06:25:25;4.25;;;0.90;;
37221;SDS011;23119;51.842;-2.230;2023-06-22T06:27:52;1.48;;;1.00;;
37221;SDS011;23119;51.842;-2.230;2023-06-22T06:30:19;3.67;;;1.10;;
37221;SDS011;23119;51.842;-2.230;2023-06-22T06:32:48;1.95;;;0.90;;
37221;SDS011;23119;51.842;-2.230;2023-06-22T06:35:17;1.80;;;1.02;;
37221;SDS011;23119;51.842;-2.230;2023-06-22T06:37:44;2.53;;;1.15;;
37221;SDS011;23119;51.842;-2.230;2023-06-22T06:40:12;2.80;;;0.90;;
37221;SDS011;23119;51.842;-2.230;2023-06-22T06:42:47;6.88;;;0.93;;
37221;SDS011;23119;51.842;-2.230;2023-06-22T06:45:21;2.83;;;1.00;;
37221;SDS011;23119;51.842;-2.230;2023-06-22T06:47:50;2.95;;;1.35;;
37221;SDS011;23119;51.842;-2.230;2023-06-22T06:50:17;3.67;;;0.85;;
37221;SDS011;23119;51.842;-2.230;2023-06-22T06:52:45;3.22;;;0.70;;
37221;SDS011;23119;51.842;-2.230;2023-06-22T06:55:11;1.75;;;1.23;;
37221;SDS011;23119;51.842;-2.230;2023-06-22T06:57:42;3.53;;;0.93;;
37221;SDS011;23119;51.842;-2.230;2023-06-22T07:00:15;3.08;;;0.80;;
37221;SDS011;23119;51.842;-2.230;2023-06-22T07:02:42;2.75;;;1.00;;
37221;SDS011;23119;51.842;-2.230;2023-06-22T07:05:10;4.25;;;0.90;;
37221;SDS011;23119;51.842;-2.230;2023-06-22T07:07:36;1.50;;;0.80;;
37221;SDS011;23119;51.842;-2.230;2023-06-22T07:10:03;3.05;;;1.00;;
37221;SDS011;23119;51.842;-2.230;2023-06-22T07:12:40;7.78;;;1.05;;
37221;SDS011;23119;51.842;-2.230;2023-06-22T07:15:07;4.70;;;1.00;;
37221;SDS011;23119;51.842;-2.230;2023-06-22T07:17:34;2.00;;;0.90;;
37221;SDS011;23119;51.842;-2.230;2023-06-22T07:20:06;3.38;;;0.90;;
37221;SDS011;23119;51.842;-2.230;2023-06-22T07:22:44;2.80;;;1.20;;
37221;SDS011;23119;51.842;-2.230;2023-06-22T07:25:13;1.88;;;1.00;;
37221;SDS011;23119;51.842;-2.230;2023-06-22T07:27:46;1.80;;;1.00;;
37221;SDS011;23119;51.842;-2.230;2023-06-22T07:30:28;4.05;;;1.13;;
37221;SDS011;23119;51.842;-2.230;2023-06-22T07:33:05;3.80;;;1.20;;
37221;SDS011;23119;51.842;-2.230;2023-06-22T07:35:33;3.22;;;1.33;;
37221;SDS011;23119;51.842;-2.230;2023-06-22T07:38:02;5.35;;;1.58;;
37221;SDS011;23119;51.842;-2.230;2023-06-22T07:40:28;4.13;;;1.30;;
37221;SDS011;23119;51.842;-2.230;2023-06-22T07:42:54;3.33;;;1.38;;
37221;SDS011;23119;51.842;-2.230;2023-06-22T07:45:22;2.20;;;1.30;;
37221;SDS011;23119;51.842;-2.230;2023-06-22T07:47:48;2.08;;;1.13;;
37221;SDS011;23119;51.842;-2.230;2023-06-22T07:50:14;2.17;;;1.27;;
37221;SDS011;23119;51.842;-2.230;2023-06-22T07:52:40;2.72;;;1.25;;
37221;SDS011;23119;51.842;-2.230;2023-06-22T07:55:10;2.28;;;1.45;;
37221;SDS011;23119;51.842;-2.230;2023-06-22T07:57:39;3.67;;;2.78;;
37221;SDS011;23119;51.842;-2.230;2023-06-22T08:00:07;4.78;;;2.35;;
37221;SDS011;23119;51.842;-2.230;2023-06-22T08:02:44;2.85;;;1.20;;
37221;SDS011;23119;51.842;-2.230;2023-06-22T08:05:11;3.08;;;1.10;;
37221;SDS011;23119;51.842;-2.230;2023-06-22T08:07:40;2.13;;;1.27;;
37221;SDS011;23119;51.842;-2.230;2023-06-22T08:10:12;3.67;;;1.63;;
37221;SDS011;23119;51.842;-2.230;2023-06-22T08:12:39;2.47;;;1.58;;
37221;SDS011;23119;51.842;-2.230;2023-06-22T08:15:07;3.75;;;1.55;;
37221;SDS011;23119;51.842;-2.230;2023-06-22T08:17:38;3.47;;;1.50;;
37221;SDS011;23119;51.842;-2.230;2023-06-22T08:20:05;4.15;;;1.85;;
37221;SDS011;23119;51.842;-2.230;2023-06-22T08:22:36;2.92;;;1.42;;
37221;SDS011;23119;51.842;-2.230;2023-06-22T08:25:07;3.28;;;1.50;;
37221;SDS011;23119;51.842;-2.230;2023-06-22T08:27:33;4.32;;;1.80;;
37221;SDS011;23119;51.842;-2.230;2023-06-22T08:30:03;3.17;;;1.67;;
37221;SDS011;23119;51.842;-2.230;2023-06-22T08:32:29;3.78;;;1.30;;
37221;SDS011;23119;51.842;-2.230;2023-06-22T08:35:00;4.05;;;2.78;;
37221;SDS011;23119;51.842;-2.230;2023-06-22T08:37:26;3.40;;;2.17;;
37221;SDS011;23119;51.842;-2.230;2023-06-22T08:40:00;3.45;;;1.90;;
37221;SDS011;23119;51.842;-2.230;2023-06-22T08:42:30;5.60;;;2.90;;
37221;SDS011;23119;51.842;-2.230;2023-06-22T08:44:56;8.32;;;2.58;;
37221;SDS011;23119;51.842;-2.230;2023-06-22T08:47:24;4.40;;;1.90;;
37221;SDS011;23119;51.842;-2.230;2023-06-22T08:49:56;2.40;;;1.60;;
37221;SDS011;23119;51.842;-2.230;2023-06-22T08:54:54;3.85;;;1.77;;
37221;SDS011;23119;51.842;-2.230;2023-06-22T08:57:21;4.00;;;2.50;;
37221;SDS011;23119;51.842;-2.230;2023-06-22T08:59:50;2.88;;;1.65;;
37221;SDS011;23119;51.842;-2.230;2023-06-22T09:02:17;4.00;;;1.83;;
37221;SDS011;23119;51.842;-2.230;2023-06-22T09:04:46;5.38;;;2.42;;
37221;SDS011;23119;51.842;-2.230;2023-06-22T09:07:14;4.18;;;2.28;;
37221;SDS011;23119;51.842;-2.230;2023-06-22T09:09:47;3.35;;;2.15;;
37221;SDS011;23119;51.842;-2.230;2023-06-22T09:12:13;2.70;;;1.77;;
37221;SDS011;23119;51.842;-2.230;2023-06-22T09:14:42;2.78;;;1.85;;
37221;SDS011;23119;51.842;-2.230;2023-06-22T09:17:10;4.57;;;2.10;;
37221;SDS011;23119;51.842;-2.230;2023-06-22T09:19:40;4.97;;;2.28;;
37221;SDS011;23119;51.842;-2.230;2023-06-22T09:22:08;2.47;;;1.17;;
37221;SDS011;23119;51.842;-2.230;2023-06-22T09:24:36;6.38;;;2.10;;
37221;SDS011;23119;51.842;-2.230;2023-06-22T09:27:02;3.35;;;1.75;;
37221;SDS011;23119;51.842;-2.230;2023-06-22T09:29:31;4.35;;;1.50;;
37221;SDS011;23119;51.842;-2.230;2023-06-22T09:31:59;4.65;;;1.50;;
37221;SDS011;23119;51.842;-2.230;2023-06-22T09:34:25;3.20;;;1.63;;
37221;SDS011;23119;51.842;-2.230;2023-06-22T09:36:51;3.40;;;1.73;;
37221;SDS011;23119;51.842;-2.230;2023-06-22T09:39:19;3.30;;;1.45;;
37221;SDS011;23119;51.842;-2.230;2023-06-22T09:41:49;5.40;;;1.83;;
37221;SDS011;23119;51.842;-2.230;2023-06-22T09:44:17;2.97;;;1.42;;
37221;SDS011;23119;51.842;-2.230;2023-06-22T09:46:46;4.13;;;1.52;;
37221;SDS011;23119;51.842;-2.230;2023-06-22T09:49:12;5.88;;;1.60;;
37221;SDS011;23119;51.842;-2.230;2023-06-22T09:51:37;3.50;;;1.48;;
37221;SDS011;23119;51.842;-2.230;2023-06-22T09:54:03;3.38;;;1.65;;
37221;SDS011;23119;51.842;-2.230;2023-06-22T09:56:31;4.35;;;1.70;;
37221;SDS011;23119;51.842;-2.230;2023-06-22T09:58:57;5.00;;;1.38;;
37221;SDS011;23119;51.842;-2.230;2023-06-22T10:01:22;3.20;;;1.20;;
37221;SDS011;23119;51.842;-2.230;2023-06-22T10:03:49;2.00;;;0.98;;
37221;SDS011;23119;51.842;-2.230;2023-06-22T10:06:19;3.97;;;1.85;;
37221;SDS011;23119;51.842;-2.230;2023-06-22T10:08:45;2.53;;;1.45;;
37221;SDS011;23119;51.842;-2.230;2023-06-22T10:11:14;3.33;;;1.10;;
37221;SDS011;23119;51.842;-2.230;2023-06-22T10:13:40;5.45;;;1.20;;
37221;SDS011;23119;51.842;-2.230;2023-06-22T10:16:08;3.92;;;1.30;;
37221;SDS011;23119;51.842;-2.230;2023-06-22T10:18:42;2.85;;;1.48;;
37221;SDS011;23119;51.842;-2.230;2023-06-22T10:21:10;2.55;;;1.27;;
37221;SDS011;23119;51.842;-2.230;2023-06-22T10:23:36;4.22;;;1.73;;
37221;SDS011;23119;51.842;-2.230;2023-06-22T10:26:04;4.30;;;1.50;;
37221;SDS011;23119;51.842;-2.230;2023-06-22T10:28:31;5.22;;;1.60;;
37221;SDS011;23119;51.842;-2.230;2023-06-22T10:30:59;3.63;;;1.48;;
37221;SDS011;23119;51.842;-2.230;2023-06-22T10:33:31;5.03;;;1.83;;
37221;SDS011;23119;51.842;-2.230;2023-06-22T10:35:56;3.25;;;1.50;;
37221;SDS011;23119;51.842;-2.230;2023-06-22T10:38:25;2.42;;;1.25;;
37221;SDS011;23119;51.842;-2.230;2023-06-22T10:40:54;4.55;;;1.60;;
37221;SDS011;23119;51.842;-2.230;2023-06-22T10:43:20;4.45;;;1.48;;
37221;SDS011;23119;51.842;-2.230;2023-06-22T10:45:46;2.65;;;1.15;;
37221;SDS011;23119;51.842;-2.230;2023-06-22T10:48:11;3.55;;;1.38;;
37221;SDS011;23119;51.842;-2.230;2023-06-22T10:50:37;4.30;;;1.13;;
37221;SDS011;23119;51.842;-2.230;2023-06-22T10:53:03;3.47;;;1.13;;
37221;SDS011;23119;51.842;-2.230;2023-06-22T10:55:28;2.33;;;1.33;;
37221;SDS011;23119;51.842;-2.230;2023-06-22T10:57:54;2.90;;;1.23;;
37221;SDS011;23119;51.842;-2.230;2023-06-22T11:00:20;2.05;;;1.17;;
37221;SDS011;23119;51.842;-2.230;2023-06-22T11:02:46;2.20;;;0.98;;
37221;SDS011;23119;51.842;-2.230;2023-06-22T11:05:12;3.25;;;0.80;;
37221;SDS011;23119;51.842;-2.230;2023-06-22T11:07:41;1.85;;;0.85;;
37221;SDS011;23119;51.842;-2.230;2023-06-22T11:10:08;1.92;;;0.90;;
37221;SDS011;23119;51.842;-2.230;2023-06-22T11:12:37;3.17;;;1.10;;
37221;SDS011;23119;51.842;-2.230;2023-06-22T11:15:03;4.10;;;0.98;;
37221;SDS011;23119;51.842;-2.230;2023-06-22T11:17:31;1.70;;;1.02;;
37221;SDS011;23119;51.842;-2.230;2023-06-22T11:19:57;2.53;;;1.00;;
37221;SDS011;23119;51.842;-2.230;2023-06-22T11:22:25;2.35;;;0.93;;
37221;SDS011;23119;51.842;-2.230;2023-06-22T11:24:50;2.17;;;0.80;;
37221;SDS011;23119;51.842;-2.230;2023-06-22T11:27:16;2.50;;;0.80;;
37221;SDS011;23119;51.842;-2.230;2023-06-22T11:29:42;2.22;;;0.95;;
37221;SDS011;23119;51.842;-2.230;2023-06-22T11:32:08;3.45;;;0.95;;
37221;SDS011;23119;51.842;-2.230;2023-06-22T11:34:34;1.65;;;0.80;;
37221;SDS011;23119;51.842;-2.230;2023-06-22T11:37:00;4.03;;;1.10;;
37221;SDS011;23119;51.842;-2.230;2023-06-22T11:39:28;2.30;;;1.10;;
37221;SDS011;23119;51.842;-2.230;2023-06-22T11:41:54;2.05;;;0.85;;
37221;SDS011;23119;51.842;-2.230;2023-06-22T11:44:21;2.15;;;0.85;;
37221;SDS011;23119;51.842;-2.230;2023-06-22T11:46:47;2.47;;;0.80;;
37221;SDS011;23119;51.842;-2.230;2023-06-22T11:49:13;1.67;;;1.00;;
37221;SDS011;23119;51.842;-2.230;2023-06-22T11:51:41;1.88;;;0.90;;
37221;SDS011;23119;51.842;-2.230;2023-06-22T11:54:07;1.77;;;0.80;;
37221;SDS011;23119;51.842;-2.230;2023-06-22T11:56:33;1.80;;;0.85;;
37221;SDS011;23119;51.842;-2.230;2023-06-22T11:58:58;2.17;;;0.75;;
37221;SDS011;23119;51.842;-2.230;2023-06-22T12:01:24;2.03;;;0.80;;
37221;SDS011;23119;51.842;-2.230;2023-06-22T12:03:52;3.00;;;0.80;;
37221;SDS011;23119;51.842;-2.230;2023-06-22T12:06:18;2.00;;;1.00;;
37221;SDS011;23119;51.842;-2.230;2023-06-22T12:08:44;3.10;;;0.93;;
37221;SDS011;23119;51.842;-2.230;2023-06-22T12:11:09;2.35;;;0.90;;
37221;SDS011;23119;51.842;-2.230;2023-06-22T12:13:35;1.63;;;0.88;;
37221;SDS011;23119;51.842;-2.230;2023-06-22T12:16:01;1.02;;;0.60;;
37221;SDS011;23119;51.842;-2.230;2023-06-22T12:18:29;2.97;;;0.68;;
37221;SDS011;23119;51.842;-2.230;2023-06-22T12:20:54;2.22;;;0.80;;
37221;SDS011;23119;51.842;-2.230;2023-06-22T12:23:20;1.80;;;0.73;;
37221;SDS011;23119;51.842;-2.230;2023-06-22T12:25:48;2.55;;;0.80;;
37221;SDS011;23119;51.842;-2.230;2023-06-22T12:28:14;1.45;;;0.75;;
37221;SDS011;23119;51.842;-2.230;2023-06-22T12:30:40;1.70;;;0.90;;
37221;SDS011;23119;51.842;-2.230;2023-06-22T12:33:05;3.22;;;0.88;;
37221;SDS011;23119;51.842;-2.230;2023-06-22T12:35:31;1.92;;;0.68;;
37221;SDS011;23119;51.842;-2.230;2023-06-22T12:37:57;2.17;;;0.90;;
37221;SDS011;23119;51.842;-2.230;2023-06-22T12:40:23;1.75;;;0.80;;
37221;SDS011;23119;51.842;-2.230;2023-06-22T12:42:49;2.10;;;0.90;;
37221;SDS011;23119;51.842;-2.230;2023-06-22T12:45:15;4.20;;;0.90;;
37221;SDS011;23119;51.842;-2.230;2023-06-22T12:47:40;1.67;;;0.68;;
37221;SDS011;23119;51.842;-2.230;2023-06-22T12:50:06;1.25;;;0.77;;
37221;SDS011;23119;51.842;-2.230;2023-06-22T12:52:32;2.17;;;0.80;;
37221;SDS011;23119;51.842;-2.230;2023-06-22T12:54:58;2.22;;;1.10;;
37221;SDS011;23119;51.842;-2.230;2023-06-22T12:57:26;1.95;;;0.73;;
37221;SDS011;23119;51.842;-2.230;2023-06-22T12:59:52;2.47;;;0.80;;
37221;SDS011;23119;51.842;-2.230;2023-06-22T13:02:17;1.88;;;0.70;;
37221;SDS011;23119;51.842;-2.230;2023-06-22T13:04:43;1.25;;;0.68;;
37221;SDS011;23119;51.842;-2.230;2023-06-22T13:07:11;1.98;;;0.60;;
37221;SDS011;23119;51.842;-2.230;2023-06-22T13:09:37;2.15;;;0.63;;
37221;SDS011;23119;51.842;-2.230;2023-06-22T13:12:03;1.58;;;0.60;;
37221;SDS011;23119;51.842;-2.230;2023-06-22T13:14:31;1.88;;;0.60;;
37221;SDS011;23119;51.842;-2.230;2023-06-22T13:16:57;2.38;;;0.90;;
37221;SDS011;23119;51.842;-2.230;2023-06-22T13:19:23;1.42;;;0.70;;
37221;SDS011;23119;51.842;-2.230;2023-06-22T13:21:49;1.77;;;0.90;;
37221;SDS011;23119;51.842;-2.230;2023-06-22T13:24:17;2.63;;;0.63;;
37221;SDS011;23119;51.842;-2.230;2023-06-22T13:26:43;2.50;;;0.77;;
37221;SDS011;23119;51.842;-2.230;2023-06-22T13:29:11;1.58;;;0.70;;
37221;SDS011;23119;51.842;-2.230;2023-06-22T13:31:39;2.30;;;0.68;;
37221;SDS011;23119;51.842;-2.230;2023-06-22T13:34:07;1.38;;;0.68;;
37221;SDS011;23119;51.842;-2.230;2023-06-22T13:36:33;1.90;;;0.70;;
37221;SDS011;23119;51.842;-2.230;2023-06-22T13:38:59;1.35;;;0.60;;
37221;SDS011;23119;51.842;-2.230;2023-06-22T13:41:25;1.27;;;0.60;;
37221;SDS011;23119;51.842;-2.230;2023-06-22T13:43:53;3.28;;;0.90;;
37221;SDS011;23119;51.842;-2.230;2023-06-22T13:46:18;1.42;;;0.50;;
37221;SDS011;23119;51.842;-2.230;2023-06-22T13:48:51;1.25;;;0.60;;
37221;SDS011;23119;51.842;-2.230;2023-06-22T13:51:17;1.35;;;0.50;;
37221;SDS011;23119;51.842;-2.230;2023-06-22T13:53:43;1.77;;;0.47;;
37221;SDS011;23119;51.842;-2.230;2023-06-22T13:56:08;2.63;;;0.60;;
37221;SDS011;23119;51.842;-2.230;2023-06-22T13:58:37;2.08;;;0.70;;
37221;SDS011;23119;51.842;-2.230;2023-06-22T14:01:05;1.23;;;0.60;;
37221;SDS011;23119;51.842;-2.230;2023-06-22T14:03:30;2.13;;;0.77;;
37221;SDS011;23119;51.842;-2.230;2023-06-22T14:05:56;1.33;;;0.70;;
37221;SDS011;23119;51.842;-2.230;2023-06-22T14:08:23;1.50;;;0.70;;
37221;SDS011;23119;51.842;-2.230;2023-06-22T14:10:50;2.33;;;0.60;;
37221;SDS011;23119;51.842;-2.230;2023-06-22T14:13:15;1.73;;;0.73;;
37221;SDS011;23119;51.842;-2.230;2023-06-22T14:15:41;2.72;;;0.60;;
37221;SDS011;23119;51.842;-2.230;2023-06-22T14:18:09;4.03;;;0.75;;
37221;SDS011;23119;51.842;-2.230;2023-06-22T14:20:40;1.60;;;0.60;;
37221;SDS011;23119;51.842;-2.230;2023-06-22T14:23:06;1.42;;;0.60;;
37221;SDS011;23119;51.842;-2.230;2023-06-22T14:25:31;2.40;;;0.80;;
37221;SDS011;23119;51.842;-2.230;2023-06-22T14:27:59;1.30;;;0.75;;
37221;SDS011;23119;51.842;-2.230;2023-06-22T14:30:25;1.33;;;0.60;;
37221;SDS011;23119;51.842;-2.230;2023-06-22T14:32:51;4.65;;;0.70;;
37221;SDS011;23119;51.842;-2.230;2023-06-22T14:35:16;3.22;;;0.70;;
37221;SDS011;23119;51.842;-2.230;2023-06-22T14:37:42;2.50;;;0.80;;
37221;SDS011;23119;51.842;-2.230;2023-06-22T14:40:08;1.55;;;0.70;;
37221;SDS011;23119;51.842;-2.230;2023-06-22T14:42:34;2.90;;;0.77;;
37221;SDS011;23119;51.842;-2.230;2023-06-22T14:45:07;1.55;;;0.70;;
37221;SDS011;23119;51.842;-2.230;2023-06-22T14:47:33;1.50;;;0.50;;
37221;SDS011;23119;51.842;-2.230;2023-06-22T14:50:02;1.67;;;0.73;;
37221;SDS011;23119;51.842;-2.230;2023-06-22T14:52:28;2.47;;;0.70;;
37221;SDS011;23119;51.842;-2.230;2023-06-22T14:54:55;2.83;;;0.75;;
37221;SDS011;23119;51.842;-2.230;2023-06-22T14:57:23;1.40;;;0.52;;
37221;SDS011;23119;51.842;-2.230;2023-06-22T14:59:49;1.42;;;0.75;;